sensor_id;sensor_type;location;lat;lon;timestamp;temperature;humidity
17845;DHT22;9047;53.486;10.218;2022-09-28T00:01:07;9.20;99.90
17845;DHT22;9047;53.486;10.218;2022-09-28T00:03:36;9.10;99.90
17845;DHT22;9047;53.486;10.218;2022-09-28T00:06:05;9.10;99.90
17845;DHT22;9047;53.486;10.218;2022-09-28T00:08:32;9.10;99.90
17845;DHT22;9047;53.486;10.218;2022-09-28T00:11:00;9.10;99.90
17845;DHT22;9047;53.486;10.218;2022-09-28T00:13:29;9.00;99.90
17845;DHT22;9047;53.486;10.218;2022-09-28T00:15:59;9.00;99.90
17845;DHT22;9047;53.486;10.218;2022-09-28T00:18:26;9.00;99.90
17845;DHT22;9047;53.486;10.218;2022-09-28T00:21:03;9.00;99.90
17845;DHT22;9047;53.486;10.218;2022-09-28T00:23:30;9.00;99.90
17845;DHT22;9047;53.486;10.218;2022-09-28T00:26:01;9.00;99.90
17845;DHT22;9047;53.486;10.218;2022-09-28T00:28:28;9.00;99.90
17845;DHT22;9047;53.486;10.218;2022-09-28T00:30:56;9.00;99.90
17845;DHT22;9047;53.486;10.218;2022-09-28T00:33:23;8.90;99.90
17845;DHT22;9047;53.486;10.218;2022-09-28T00:35:55;8.90;99.90
17845;DHT22;9047;53.486;10.218;2022-09-28T00:38:25;8.90;99.90
17845;DHT22;9047;53.486;10.218;2022-09-28T00:40:53;8.90;99.90
17845;DHT22;9047;53.486;10.218;2022-09-28T00:43:24;8.90;99.90
17845;DHT22;9047;53.486;10.218;2022-09-28T00:45:57;8.90;99.90
17845;DHT22;9047;53.486;10.218;2022-09-28T00:48:28;8.80;99.90
17845;DHT22;9047;53.486;10.218;2022-09-28T00:50:58;8.80;99.90
17845;DHT22;9047;53.486;10.218;2022-09-28T00:53:31;8.70;99.90
17845;DHT22;9047;53.486;10.218;2022-09-28T00:56:03;8.80;99.90
17845;DHT22;9047;53.486;10.218;2022-09-28T00:58:34;8.70;99.90
17845;DHT22;9047;53.486;10.218;2022-09-28T01:01:02;8.70;99.90
17845;DHT22;9047;53.486;10.218;2022-09-28T01:03:30;8.70;99.90
17845;DHT22;9047;53.486;10.218;2022-09-28T01:06:02;8.70;99.90
17845;DHT22;9047;53.486;10.218;2022-09-28T01:08:33;8.60;99.90
17845;DHT22;9047;53.486;10.218;2022-09-28T01:11:02;8.60;99.90
17845;DHT22;9047;53.486;10.218;2022-09-28T01:13:30;8.50;99.90
17845;DHT22;9047;53.486;10.218;2022-09-28T01:16:01;8.40;99.90
17845;DHT22;9047;53.486;10.218;2022-09-28T01:18:39;8.40;99.90
17845;DHT22;9047;53.486;10.218;2022-09-28T01:21:14;8.40;99.90
17845;DHT22;9047;53.486;10.218;2022-09-28T01:24:02;8.30;99.90
17845;DHT22;9047;53.486;10.218;2022-09-28T01:26:59;8.30;99.90
17845;DHT22;9047;53.486;10.218;2022-09-28T01:29:45;8.20;99.90
17845;DHT22;9047;53.486;10.218;2022-09-28T01:32:26;8.20;99.90
17845;DHT22;9047;53.486;10.218;2022-09-28T01:35:02;8.20;99.90
17845;DHT22;9047;53.486;10.218;2022-09-28T01:37:36;8.20;99.90
17845;DHT22;9047;53.486;10.218;2022-09-28T01:40:06;8.10;99.90
17845;DHT22;9047;53.486;10.218;2022-09-28T01:42:37;8.10;99.90
17845;DHT22;9047;53.486;10.218;2022-09-28T01:45:09;8.00;99.90
17845;DHT22;9047;53.486;10.218;2022-09-28T01:47:39;7.90;99.90
17845;DHT22;9047;53.486;10.218;2022-09-28T01:50:10;7.90;99.90
17845;DHT22;9047;53.486;10.218;2022-09-28T01:52:44;7.80;99.90
17845;DHT22;9047;53.486;10.218;2022-09-28T01:55:18;7.80;99.90
17845;DHT22;9047;53.486;10.218;2022-09-28T01:57:54;7.80;99.90
17845;DHT22;9047;53.486;10.218;2022-09-28T02:00:23;7.70;99.90
17845;DHT22;9047;53.486;10.218;2022-09-28T02:02:54;7.70;99.90
17845;DHT22;9047;53.486;10.218;2022-09-28T02:05:27;7.60;99.90
17845;DHT22;9047;53.486;10.218;2022-09-28T02:08:01;7.60;99.90
17845;DHT22;9047;53.486;10.218;2022-09-28T02:10:34;7.50;99.90
17845;DHT22;9047;53.486;10.218;2022-09-28T02:13:08;7.50;99.90
17845;DHT22;9047;53.486;10.218;2022-09-28T02:15:41;7.40;99.90
17845;DHT22;9047;53.486;10.218;2022-09-28T02:18:10;7.40;99.90
17845;DHT22;9047;53.486;10.218;2022-09-28T02:20:41;7.30;99.90
17845;DHT22;9047;53.486;10.218;2022-09-28T02:23:12;7.30;99.90
17845;DHT22;9047;53.486;10.218;2022-09-28T02:25:46;7.20;99.90
17845;DHT22;9047;53.486;10.218;2022-09-28T02:28:15;7.20;99.90
17845;DHT22;9047;53.486;10.218;2022-09-28T02:30:45;7.10;99.90
17845;DHT22;9047;53.486;10.218;2022-09-28T02:33:15;7.10;99.90
17845;DHT22;9047;53.486;10.218;2022-09-28T02:35:43;7.10;99.90
17845;DHT22;9047;53.486;10.218;2022-09-28T02:38:11;7.10;99.90
17845;DHT22;9047;53.486;10.218;2022-09-28T02:40:39;7.00;99.90
17845;DHT22;9047;53.486;10.218;2022-09-28T02:43:13;7.00;99.90
17845;DHT22;9047;53.486;10.218;2022-09-28T02:45:52;7.00;99.90
17845;DHT22;9047;53.486;10.218;2022-09-28T02:48:38;6.90;99.90
17845;DHT22;9047;53.486;10.218;2022-09-28T02:51:17;6.80;99.90
17845;DHT22;9047;53.486;10.218;2022-09-28T02:54:18;6.80;99.90
17845;DHT22;9047;53.486;10.218;2022-09-28T02:57:02;6.70;99.90
17845;DHT22;9047;53.486;10.218;2022-09-28T02:59:45;6.70;99.90
17845;DHT22;9047;53.486;10.218;2022-09-28T03:02:22;6.70;99.90
17845;DHT22;9047;53.486;10.218;2022-09-28T03:05:02;6.60;99.90
17845;DHT22;9047;53.486;10.218;2022-09-28T03:07:33;6.60;99.90
17845;DHT22;9047;53.486;10.218;2022-09-28T03:10:04;6.60;99.90
17845;DHT22;9047;53.486;10.218;2022-09-28T03:12:35;6.50;99.90
17845;DHT22;9047;53.486;10.218;2022-09-28T03:15:07;6.50;99.90
17845;DHT22;9047;53.486;10.218;2022-09-28T03:17:36;6.50;99.90
17845;DHT22;9047;53.486;10.218;2022-09-28T03:20:06;6.50;99.90
17845;DHT22;9047;53.486;10.218;2022-09-28T03:22:33;6.50;99.90
17845;DHT22;9047;53.486;10.218;2022-09-28T03:25:00;6.50;99.90
17845;DHT22;9047;53.486;10.218;2022-09-28T03:27:27;6.50;99.90
17845;DHT22;9047;53.486;10.218;2022-09-28T03:29:54;6.50;99.90
17845;DHT22;9047;53.486;10.218;2022-09-28T03:32:21;6.50;99.90
17845;DHT22;9047;53.486;10.218;2022-09-28T03:34:50;6.50;99.90
17845;DHT22;9047;53.486;10.218;2022-09-28T03:37:20;6.60;99.90
17845;DHT22;9047;53.486;10.218;2022-09-28T03:39:48;6.60;99.90
17845;DHT22;9047;53.486;10.218;2022-09-28T03:42:15;6.60;99.90
17845;DHT22;9047;53.486;10.218;2022-09-28T03:44:43;6.60;99.90
17845;DHT22;9047;53.486;10.218;2022-09-28T03:47:10;6.60;99.90
17845;DHT22;9047;53.486;10.218;2022-09-28T03:49:37;6.70;99.90
17845;DHT22;9047;53.486;10.218;2022-09-28T03:52:05;6.80;99.90
17845;DHT22;9047;53.486;10.218;2022-09-28T03:54:32;6.70;99.90
17845;DHT22;9047;53.486;10.218;2022-09-28T03:56:59;6.90;99.90
17845;DHT22;9047;53.486;10.218;2022-09-28T03:59:26;6.90;99.90
17845;DHT22;9047;53.486;10.218;2022-09-28T04:01:56;6.90;99.90
17845;DHT22;9047;53.486;10.218;2022-09-28T04:04:23;7.10;99.90
17845;DHT22;9047;53.486;10.218;2022-09-28T04:06:50;7.00;99.90
17845;DHT22;9047;53.486;10.218;2022-09-28T04:09:22;7.10;99.90
17845;DHT22;9047;53.486;10.218;2022-09-28T04:11:49;7.10;99.90
17845;DHT22;9047;53.486;10.218;2022-09-28T04:14:17;7.10;99.90
17845;DHT22;9047;53.486;10.218;2022-09-28T04:16:44;7.10;99.90
17845;DHT22;9047;53.486;10.218;2022-09-28T04:19:14;7.10;99.90
17845;DHT22;9047;53.486;10.218;2022-09-28T04:21:41;7.10;99.90
17845;DHT22;9047;53.486;10.218;2022-09-28T04:24:09;7.10;99.90
17845;DHT22;9047;53.486;10.218;2022-09-28T04:26:41;7.10;99.90
17845;DHT22;9047;53.486;10.218;2022-09-28T04:29:12;7.20;99.90
17845;DHT22;9047;53.486;10.218;2022-09-28T04:31:42;7.20;99.90
17845;DHT22;9047;53.486;10.218;2022-09-28T04:34:14;7.20;99.90
17845;DHT22;9047;53.486;10.218;2022-09-28T04:36:43;7.20;99.90
17845;DHT22;9047;53.486;10.218;2022-09-28T04:39:10;7.10;99.90
17845;DHT22;9047;53.486;10.218;2022-09-28T04:41:37;7.20;99.90
17845;DHT22;9047;53.486;10.218;2022-09-28T04:44:05;7.10;99.90
17845;DHT22;9047;53.486;10.218;2022-09-28T04:46:32;7.10;99.90
17845;DHT22;9047;53.486;10.218;2022-09-28T04:48:59;7.20;99.90
17845;DHT22;9047;53.486;10.218;2022-09-28T04:51:29;7.10;99.90
17845;DHT22;9047;53.486;10.218;2022-09-28T04:53:56;7.00;99.90
17845;DHT22;9047;53.486;10.218;2022-09-28T04:56:23;7.00;99.90
17845;DHT22;9047;53.486;10.218;2022-09-28T04:58:50;7.00;99.90
17845;DHT22;9047;53.486;10.218;2022-09-28T05:01:18;7.00;99.90
17845;DHT22;9047;53.486;10.218;2022-09-28T05:03:48;7.00;99.90
17845;DHT22;9047;53.486;10.218;2022-09-28T05:06:16;7.00;99.90
17845;DHT22;9047;53.486;10.218;2022-09-28T05:08:43;7.00;99.90
17845;DHT22;9047;53.486;10.218;2022-09-28T05:11:12;7.00;99.90
17845;DHT22;9047;53.486;10.218;2022-09-28T05:13:41;7.00;99.90
17845;DHT22;9047;53.486;10.218;2022-09-28T05:16:08;7.00;99.90
17845;DHT22;9047;53.486;10.218;2022-09-28T05:18:37;7.00;99.90
17845;DHT22;9047;53.486;10.218;2022-09-28T05:21:10;7.00;99.90
17845;DHT22;9047;53.486;10.218;2022-09-28T05:23:45;6.90;99.90
17845;DHT22;9047;53.486;10.218;2022-09-28T05:26:19;7.00;99.90
17845;DHT22;9047;53.486;10.218;2022-09-28T05:28:48;7.20;99.90
17845;DHT22;9047;53.486;10.218;2022-09-28T05:31:19;7.00;99.90
17845;DHT22;9047;53.486;10.218;2022-09-28T05:33:52;7.10;99.90
17845;DHT22;9047;53.486;10.218;2022-09-28T05:36:25;7.10;99.90
17845;DHT22;9047;53.486;10.218;2022-09-28T05:39:12;7.10;99.90
17845;DHT22;9047;53.486;10.218;2022-09-28T05:41:43;7.10;99.90
17845;DHT22;9047;53.486;10.218;2022-09-28T05:44:14;7.10;99.90
17845;DHT22;9047;53.486;10.218;2022-09-28T05:46:41;7.20;99.90
17845;DHT22;9047;53.486;10.218;2022-09-28T05:49:10;7.20;99.90
17845;DHT22;9047;53.486;10.218;2022-09-28T05:51:37;7.20;99.90
17845;DHT22;9047;53.486;10.218;2022-09-28T05:54:07;7.30;99.90
17845;DHT22;9047;53.486;10.218;2022-09-28T05:56:34;7.30;99.90
17845;DHT22;9047;53.486;10.218;2022-09-28T05:59:01;7.30;99.90
17845;DHT22;9047;53.486;10.218;2022-09-28T06:01:29;7.40;99.90
17845;DHT22;9047;53.486;10.218;2022-09-28T06:03:56;7.40;99.90
17845;DHT22;9047;53.486;10.218;2022-09-28T06:06:24;7.40;99.90
17845;DHT22;9047;53.486;10.218;2022-09-28T06:08:51;7.40;99.90
17845;DHT22;9047;53.486;10.218;2022-09-28T06:11:18;7.40;99.90
17845;DHT22;9047;53.486;10.218;2022-09-28T06:13:44;7.50;99.90
17845;DHT22;9047;53.486;10.218;2022-09-28T06:16:13;7.50;99.90
17845;DHT22;9047;53.486;10.218;2022-09-28T06:18:40;7.50;99.90
17845;DHT22;9047;53.486;10.218;2022-09-28T06:21:07;7.70;99.90
17845;DHT22;9047;53.486;10.218;2022-09-28T06:23:37;7.70;99.90
17845;DHT22;9047;53.486;10.218;2022-09-28T06:26:04;7.70;99.90
17845;DHT22;9047;53.486;10.218;2022-09-28T06:28:30;7.70;99.90
17845;DHT22;9047;53.486;10.218;2022-09-28T06:30:58;7.70;99.90
17845;DHT22;9047;53.486;10.218;2022-09-28T06:33:25;7.70;99.90
17845;DHT22;9047;53.486;10.218;2022-09-28T06:35:52;7.80;99.90
17845;DHT22;9047;53.486;10.218;2022-09-28T06:38:19;7.80;99.90
17845;DHT22;9047;53.486;10.218;2022-09-28T06:40:47;7.80;99.90
17845;DHT22;9047;53.486;10.218;2022-09-28T06:43:14;7.70;99.90
17845;DHT22;9047;53.486;10.218;2022-09-28T06:45:42;7.80;99.90
17845;DHT22;9047;53.486;10.218;2022-09-28T06:48:09;7.80;99.90
17845;DHT22;9047;53.486;10.218;2022-09-28T06:50:39;7.80;99.90
17845;DHT22;9047;53.486;10.218;2022-09-28T06:53:08;7.80;99.90
17845;DHT22;9047;53.486;10.218;2022-09-28T06:55:38;7.80;99.90
17845;DHT22;9047;53.486;10.218;2022-09-28T06:58:09;7.80;99.90
17845;DHT22;9047;53.486;10.218;2022-09-28T07:00:37;7.90;99.90
17845;DHT22;9047;53.486;10.218;2022-09-28T07:03:06;7.90;99.90
17845;DHT22;9047;53.486;10.218;2022-09-28T07:05:35;8.00;99.90
17845;DHT22;9047;53.486;10.218;2022-09-28T07:08:02;8.10;99.90
17845;DHT22;9047;53.486;10.218;2022-09-28T07:10:30;8.10;99.90
17845;DHT22;9047;53.486;10.218;2022-09-28T07:13:00;8.20;99.90
17845;DHT22;9047;53.486;10.218;2022-09-28T07:15:30;8.30;99.90
17845;DHT22;9047;53.486;10.218;2022-09-28T07:17:58;8.30;99.90
17845;DHT22;9047;53.486;10.218;2022-09-28T07:20:25;8.30;99.90
17845;DHT22;9047;53.486;10.218;2022-09-28T07:22:52;8.40;99.90
17845;DHT22;9047;53.486;10.218;2022-09-28T07:25:19;8.40;99.90
17845;DHT22;9047;53.486;10.218;2022-09-28T07:27:46;8.50;99.90
17845;DHT22;9047;53.486;10.218;2022-09-28T07:30:13;8.40;99.90
17845;DHT22;9047;53.486;10.218;2022-09-28T07:32:41;8.40;99.90
17845;DHT22;9047;53.486;10.218;2022-09-28T07:35:10;8.40;99.90
17845;DHT22;9047;53.486;10.218;2022-09-28T07:37:37;8.40;99.90
17845;DHT22;9047;53.486;10.218;2022-09-28T07:40:05;8.50;99.90
17845;DHT22;9047;53.486;10.218;2022-09-28T07:43:03;8.50;99.90
17845;DHT22;9047;53.486;10.218;2022-09-28T07:45:30;8.60;99.90
17845;DHT22;9047;53.486;10.218;2022-09-28T07:48:02;8.70;99.90
17845;DHT22;9047;53.486;10.218;2022-09-28T07:50:29;8.80;99.90
17845;DHT22;9047;53.486;10.218;2022-09-28T07:52:56;8.90;99.90
17845;DHT22;9047;53.486;10.218;2022-09-28T07:55:25;9.00;99.90
17845;DHT22;9047;53.486;10.218;2022-09-28T07:57:53;9.00;99.90
17845;DHT22;9047;53.486;10.218;2022-09-28T08:00:20;9.10;99.90
17845;DHT22;9047;53.486;10.218;2022-09-28T08:02:47;9.20;99.90
17845;DHT22;9047;53.486;10.218;2022-09-28T08:05:15;9.20;99.90
17845;DHT22;9047;53.486;10.218;2022-09-28T08:07:42;9.40;99.90
17845;DHT22;9047;53.486;10.218;2022-09-28T08:10:09;9.40;99.90
17845;DHT22;9047;53.486;10.218;2022-09-28T08:12:36;9.50;99.90
17845;DHT22;9047;53.486;10.218;2022-09-28T08:15:06;9.60;99.90
17845;DHT22;9047;53.486;10.218;2022-09-28T08:17:35;9.60;99.90
17845;DHT22;9047;53.486;10.218;2022-09-28T08:20:02;9.70;99.90
17845;DHT22;9047;53.486;10.218;2022-09-28T08:22:48;9.70;99.90
17845;DHT22;9047;53.486;10.218;2022-09-28T08:25:15;9.70;99.90
17845;DHT22;9047;53.486;10.218;2022-09-28T08:27:42;9.70;99.90
17845;DHT22;9047;53.486;10.218;2022-09-28T08:30:09;9.80;99.90
17845;DHT22;9047;53.486;10.218;2022-09-28T08:32:36;9.70;99.90
17845;DHT22;9047;53.486;10.218;2022-09-28T08:35:04;9.70;99.90
17845;DHT22;9047;53.486;10.218;2022-09-28T08:37:31;9.70;99.90
17845;DHT22;9047;53.486;10.218;2022-09-28T08:39:59;9.70;99.90
17845;DHT22;9047;53.486;10.218;2022-09-28T08:42:31;9.70;99.90
17845;DHT22;9047;53.486;10.218;2022-09-28T08:45:05;9.70;99.90
17845;DHT22;9047;53.486;10.218;2022-09-28T08:47:39;9.80;99.90
17845;DHT22;9047;53.486;10.218;2022-09-28T08:50:30;9.90;99.90
17845;DHT22;9047;53.486;10.218;2022-09-28T08:53:01;10.00;99.90
17845;DHT22;9047;53.486;10.218;2022-09-28T08:55:33;10.20;99.90
17845;DHT22;9047;53.486;10.218;2022-09-28T08:58:04;10.30;99.90
17845;DHT22;9047;53.486;10.218;2022-09-28T09:00:34;10.40;99.90
17845;DHT22;9047;53.486;10.218;2022-09-28T09:03:05;10.40;99.90
17845;DHT22;9047;53.486;10.218;2022-09-28T09:05:46;10.40;99.90
17845;DHT22;9047;53.486;10.218;2022-09-28T09:08:32;10.50;99.90
17845;DHT22;9047;53.486;10.218;2022-09-28T09:11:11;10.50;99.90
17845;DHT22;9047;53.486;10.218;2022-09-28T09:16:41;10.50;99.90
17845;DHT22;9047;53.486;10.218;2022-09-28T09:19:15;10.50;99.90
17845;DHT22;9047;53.486;10.218;2022-09-28T09:21:48;10.60;99.90
17845;DHT22;9047;53.486;10.218;2022-09-28T09:24:24;10.70;99.90
17845;DHT22;9047;53.486;10.218;2022-09-28T09:27:03;10.80;99.90
17845;DHT22;9047;53.486;10.218;2022-09-28T09:29:48;10.70;99.90
17845;DHT22;9047;53.486;10.218;2022-09-28T09:32:28;10.70;99.90
17845;DHT22;9047;53.486;10.218;2022-09-28T09:35:26;10.80;99.90
17845;DHT22;9047;53.486;10.218;2022-09-28T09:38:21;10.80;99.90
17845;DHT22;9047;53.486;10.218;2022-09-28T09:41:03;10.80;99.90
17845;DHT22;9047;53.486;10.218;2022-09-28T09:43:58;10.90;99.90
17845;DHT22;9047;53.486;10.218;2022-09-28T09:46:33;11.00;99.90
17845;DHT22;9047;53.486;10.218;2022-09-28T09:49:05;11.10;99.90
17845;DHT22;9047;53.486;10.218;2022-09-28T09:51:40;11.30;99.90
17845;DHT22;9047;53.486;10.218;2022-09-28T09:54:18;11.40;99.90
17845;DHT22;9047;53.486;10.218;2022-09-28T09:56:51;11.60;99.90
17845;DHT22;9047;53.486;10.218;2022-09-28T09:59:25;11.70;99.90
17845;DHT22;9047;53.486;10.218;2022-09-28T10:01:54;11.60;99.90
17845;DHT22;9047;53.486;10.218;2022-09-28T10:04:24;11.60;99.90
17845;DHT22;9047;53.486;10.218;2022-09-28T10:06:57;11.70;99.90
17845;DHT22;9047;53.486;10.218;2022-09-28T10:09:28;11.70;99.90
17845;DHT22;9047;53.486;10.218;2022-09-28T10:11:56;11.70;99.90
17845;DHT22;9047;53.486;10.218;2022-09-28T10:14:24;11.80;99.90
17845;DHT22;9047;53.486;10.218;2022-09-28T10:16:54;11.90;99.90
17845;DHT22;9047;53.486;10.218;2022-09-28T10:19:28;12.00;99.90
17845;DHT22;9047;53.486;10.218;2022-09-28T10:22:02;12.10;99.90
17845;DHT22;9047;53.486;10.218;2022-09-28T10:24:32;12.10;99.90
17845;DHT22;9047;53.486;10.218;2022-09-28T10:27:05;12.10;99.90
17845;DHT22;9047;53.486;10.218;2022-09-28T10:29:41;12.20;99.90
17845;DHT22;9047;53.486;10.218;2022-09-28T10:32:18;12.10;99.90
17845;DHT22;9047;53.486;10.218;2022-09-28T10:34:46;12.10;99.90
17845;DHT22;9047;53.486;10.218;2022-09-28T10:37:13;12.20;99.90
17845;DHT22;9047;53.486;10.218;2022-09-28T10:39:45;12.20;99.90
17845;DHT22;9047;53.486;10.218;2022-09-28T10:42:18;12.20;99.90
17845;DHT22;9047;53.486;10.218;2022-09-28T10:44:54;12.20;99.90
17845;DHT22;9047;53.486;10.218;2022-09-28T10:47:23;12.40;99.90
17845;DHT22;9047;53.486;10.218;2022-09-28T10:49:52;12.40;99.90
17845;DHT22;9047;53.486;10.218;2022-09-28T10:52:41;12.50;99.90
17845;DHT22;9047;53.486;10.218;2022-09-28T10:55:30;12.60;99.90
17845;DHT22;9047;53.486;10.218;2022-09-28T10:57:58;12.70;99.90
17845;DHT22;9047;53.486;10.218;2022-09-28T11:00:38;12.80;99.90
17845;DHT22;9047;53.486;10.218;2022-09-28T11:03:13;12.80;99.90
17845;DHT22;9047;53.486;10.218;2022-09-28T11:05:52;12.90;99.90
17845;DHT22;9047;53.486;10.218;2022-09-28T11:08:24;12.90;99.90
17845;DHT22;9047;53.486;10.218;2022-09-28T11:11:04;13.00;99.90
17845;DHT22;9047;53.486;10.218;2022-09-28T11:13:41;12.90;99.90
17845;DHT22;9047;53.486;10.218;2022-09-28T11:16:18;12.90;99.90
17845;DHT22;9047;53.486;10.218;2022-09-28T11:18:45;12.90;99.90
17845;DHT22;9047;53.486;10.218;2022-09-28T11:21:14;13.00;99.90
17845;DHT22;9047;53.486;10.218;2022-09-28T11:23:55;12.90;99.90
17845;DHT22;9047;53.486;10.218;2022-09-28T11:26:22;12.90;99.90
17845;DHT22;9047;53.486;10.218;2022-09-28T11:28:50;12.80;99.90
17845;DHT22;9047;53.486;10.218;2022-09-28T11:31:24;12.70;99.90
17845;DHT22;9047;53.486;10.218;2022-09-28T11:34:01;12.60;99.90
17845;DHT22;9047;53.486;10.218;2022-09-28T11:36:39;12.50;99.90
17845;DHT22;9047;53.486;10.218;2022-09-28T11:39:15;12.40;99.90
17845;DHT22;9047;53.486;10.218;2022-09-28T11:41:57;12.40;99.90
17845;DHT22;9047;53.486;10.218;2022-09-28T11:44:37;12.40;99.90
17845;DHT22;9047;53.486;10.218;2022-09-28T11:47:47;12.30;99.90
17845;DHT22;9047;53.486;10.218;2022-09-28T11:50:27;12.30;99.90
17845;DHT22;9047;53.486;10.218;2022-09-28T11:53:02;12.30;99.90
17845;DHT22;9047;53.486;10.218;2022-09-28T11:55:33;12.40;99.90
17845;DHT22;9047;53.486;10.218;2022-09-28T11:58:05;12.50;99.90
17845;DHT22;9047;53.486;10.218;2022-09-28T12:00:40;12.50;99.90
17845;DHT22;9047;53.486;10.218;2022-09-28T12:03:14;12.40;99.90
17845;DHT22;9047;53.486;10.218;2022-09-28T12:05:47;12.30;99.90
17845;DHT22;9047;53.486;10.218;2022-09-28T12:08:18;12.30;99.90
17845;DHT22;9047;53.486;10.218;2022-09-28T12:10:54;12.50;99.90
17845;DHT22;9047;53.486;10.218;2022-09-28T12:13:27;12.70;99.90
17845;DHT22;9047;53.486;10.218;2022-09-28T12:16:03;13.00;99.90
17845;DHT22;9047;53.486;10.218;2022-09-28T12:18:37;13.20;99.90
17845;DHT22;9047;53.486;10.218;2022-09-28T12:21:20;13.30;99.90
17845;DHT22;9047;53.486;10.218;2022-09-28T12:23:50;13.40;99.90
17845;DHT22;9047;53.486;10.218;2022-09-28T12:26:30;13.40;99.90
17845;DHT22;9047;53.486;10.218;2022-09-28T12:29:05;13.50;99.90
17845;DHT22;9047;53.486;10.218;2022-09-28T12:32:11;13.60;99.90
17845;DHT22;9047;53.486;10.218;2022-09-28T12:34:55;13.60;99.90
17845;DHT22;9047;53.486;10.218;2022-09-28T12:37:41;13.60;99.90
17845;DHT22;9047;53.486;10.218;2022-09-28T12:40:36;13.50;99.90
17845;DHT22;9047;53.486;10.218;2022-09-28T12:43:38;13.20;99.90
17845;DHT22;9047;53.486;10.218;2022-09-28T12:46:36;13.00;99.90
17845;DHT22;9047;53.486;10.218;2022-09-28T12:49:22;13.00;99.90
17845;DHT22;9047;53.486;10.218;2022-09-28T12:52:14;13.10;99.90
17845;DHT22;9047;53.486;10.218;2022-09-28T12:57:51;13.50;99.90
17845;DHT22;9047;53.486;10.218;2022-09-28T13:00:25;13.60;99.90
17845;DHT22;9047;53.486;10.218;2022-09-28T13:03:31;13.80;99.90
17845;DHT22;9047;53.486;10.218;2022-09-28T13:09:28;14.00;99.90
17845;DHT22;9047;53.486;10.218;2022-09-28T13:12:15;13.90;99.90
17845;DHT22;9047;53.486;10.218;2022-09-28T13:23:47;13.70;99.90
17845;DHT22;9047;53.486;10.218;2022-09-28T13:26:25;13.80;99.90
17845;DHT22;9047;53.486;10.218;2022-09-28T13:28:57;14.00;99.90
17845;DHT22;9047;53.486;10.218;2022-09-28T13:31:50;14.10;99.90
17845;DHT22;9047;53.486;10.218;2022-09-28T13:34:24;14.30;99.90
17845;DHT22;9047;53.486;10.218;2022-09-28T13:37:16;14.40;99.90
17845;DHT22;9047;53.486;10.218;2022-09-28T13:39:48;14.50;99.90
17845;DHT22;9047;53.486;10.218;2022-09-28T13:42:24;14.60;99.90
17845;DHT22;9047;53.486;10.218;2022-09-28T13:45:25;14.80;99.90
17845;DHT22;9047;53.486;10.218;2022-09-28T13:48:03;14.90;99.90
17845;DHT22;9047;53.486;10.218;2022-09-28T13:50:41;14.90;99.90
17845;DHT22;9047;53.486;10.218;2022-09-28T13:53:16;14.90;99.90
17845;DHT22;9047;53.486;10.218;2022-09-28T13:55:52;14.90;99.90
17845;DHT22;9047;53.486;10.218;2022-09-28T13:58:25;14.80;99.90
17845;DHT22;9047;53.486;10.218;2022-09-28T14:00:58;14.80;99.90
17845;DHT22;9047;53.486;10.218;2022-09-28T14:03:40;15.00;99.90
17845;DHT22;9047;53.486;10.218;2022-09-28T14:06:20;15.20;99.90
17845;DHT22;9047;53.486;10.218;2022-09-28T14:09:05;15.50;99.90
17845;DHT22;9047;53.486;10.218;2022-09-28T14:11:52;15.70;99.90
17845;DHT22;9047;53.486;10.218;2022-09-28T14:17:51;15.70;99.90
17845;DHT22;9047;53.486;10.218;2022-09-28T14:20:24;15.70;99.90
17845;DHT22;9047;53.486;10.218;2022-09-28T14:23:21;15.60;99.90
17845;DHT22;9047;53.486;10.218;2022-09-28T14:26:18;15.60;99.90
17845;DHT22;9047;53.486;10.218;2022-09-28T14:28:59;15.70;99.90
17845;DHT22;9047;53.486;10.218;2022-09-28T14:31:30;15.90;99.90
17845;DHT22;9047;53.486;10.218;2022-09-28T14:33:59;16.00;99.90
17845;DHT22;9047;53.486;10.218;2022-09-28T14:36:29;16.00;99.90
17845;DHT22;9047;53.486;10.218;2022-09-28T14:39:20;15.90;99.90
17845;DHT22;9047;53.486;10.218;2022-09-28T14:42:11;15.70;99.90
17845;DHT22;9047;53.486;10.218;2022-09-28T14:45:29;15.40;99.90
17845;DHT22;9047;53.486;10.218;2022-09-28T14:48:17;15.20;99.90
17845;DHT22;9047;53.486;10.218;2022-09-28T14:50:44;14.90;99.90
17845;DHT22;9047;53.486;10.218;2022-09-28T14:53:19;14.60;99.90
17845;DHT22;9047;53.486;10.218;2022-09-28T14:55:49;14.30;99.90
17845;DHT22;9047;53.486;10.218;2022-09-28T14:58:21;14.20;99.90
17845;DHT22;9047;53.486;10.218;2022-09-28T15:00:55;14.00;99.90
17845;DHT22;9047;53.486;10.218;2022-09-28T15:03:27;13.90;99.90
17845;DHT22;9047;53.486;10.218;2022-09-28T15:05:55;13.90;99.90
17845;DHT22;9047;53.486;10.218;2022-09-28T15:08:34;13.80;99.90
17845;DHT22;9047;53.486;10.218;2022-09-28T15:11:01;13.80;99.90
17845;DHT22;9047;53.486;10.218;2022-09-28T15:13:28;13.90;99.90
17845;DHT22;9047;53.486;10.218;2022-09-28T15:15:59;13.90;99.90
17845;DHT22;9047;53.486;10.218;2022-09-28T15:18:55;14.00;99.90
17845;DHT22;9047;53.486;10.218;2022-09-28T15:21:32;14.20;99.90
17845;DHT22;9047;53.486;10.218;2022-09-28T15:24:00;14.30;99.90
17845;DHT22;9047;53.486;10.218;2022-09-28T15:26:29;14.30;99.90
17845;DHT22;9047;53.486;10.218;2022-09-28T15:28:57;14.50;99.90
17845;DHT22;9047;53.486;10.218;2022-09-28T15:31:32;14.60;99.90
17845;DHT22;9047;53.486;10.218;2022-09-28T15:34:01;14.60;99.90
17845;DHT22;9047;53.486;10.218;2022-09-28T15:36:46;14.50;99.90
17845;DHT22;9047;53.486;10.218;2022-09-28T15:39:14;14.60;99.90
17845;DHT22;9047;53.486;10.218;2022-09-28T15:41:45;14.40;99.90
17845;DHT22;9047;53.486;10.218;2022-09-28T15:44:24;14.30;99.90
17845;DHT22;9047;53.486;10.218;2022-09-28T15:47:07;14.20;99.90
17845;DHT22;9047;53.486;10.218;2022-09-28T15:49:40;14.10;99.90
17845;DHT22;9047;53.486;10.218;2022-09-28T15:52:21;14.00;99.90
17845;DHT22;9047;53.486;10.218;2022-09-28T15:54:49;13.80;99.90
17845;DHT22;9047;53.486;10.218;2022-09-28T15:57:35;13.70;99.90
17845;DHT22;9047;53.486;10.218;2022-09-28T16:00:20;13.60;99.90
17845;DHT22;9047;53.486;10.218;2022-09-28T16:03:00;13.60;99.90
17845;DHT22;9047;53.486;10.218;2022-09-28T16:05:39;13.40;99.90
17845;DHT22;9047;53.486;10.218;2022-09-28T16:08:13;13.30;99.90
17845;DHT22;9047;53.486;10.218;2022-09-28T16:11:03;13.10;99.90
17845;DHT22;9047;53.486;10.218;2022-09-28T16:13:32;13.10;99.90
17845;DHT22;9047;53.486;10.218;2022-09-28T16:16:00;13.00;99.90
17845;DHT22;9047;53.486;10.218;2022-09-28T16:18:28;12.80;99.90
17845;DHT22;9047;53.486;10.218;2022-09-28T16:21:23;12.70;99.90
17845;DHT22;9047;53.486;10.218;2022-09-28T16:23:52;12.60;99.90
17845;DHT22;9047;53.486;10.218;2022-09-28T16:26:28;12.40;99.90
17845;DHT22;9047;53.486;10.218;2022-09-28T16:28:56;12.30;99.90
17845;DHT22;9047;53.486;10.218;2022-09-28T16:31:27;12.20;99.90
17845;DHT22;9047;53.486;10.218;2022-09-28T16:33:59;12.00;99.90
17845;DHT22;9047;53.486;10.218;2022-09-28T16:36:41;11.90;99.90
17845;DHT22;9047;53.486;10.218;2022-09-28T16:39:15;11.80;99.90
17845;DHT22;9047;53.486;10.218;2022-09-28T16:41:47;11.70;99.90